SAS173 ENHD-ENGM
Flight info
| Callsign | SAS173 |
|---|---|
| Flight time | 0h 34m |
| Altitude | 29000 |
| Route | ODINU DCT BOBGA DCT ADOPI |
| Aircraft | A320/M-SDE3FGHIRWY/LB1 |
Departure
| Time | 2026-05-08 08:40 |
|---|---|
| Airport | Haugesund Airport, Karmøy (ENHD) |
Arrival
| Time | 2026-05-08 09:14 |
|---|---|
| Airport | Oslo-Gardermoen International Airport (ENGM) |
| Time | Latitude | Longitude | Altitude | Speed | Heading |
|---|---|---|---|---|---|
| 2026-05-08 08:29 | 59.34421 | 5.21609 | 88 ft | 0 kts | 45° |
| 2026-05-08 08:33 | 59.34416 | 5.21599 | 91 ft | 2 kts | 45° |
| 2026-05-08 08:34 | 59.34404 | 5.21575 | 90 ft | 2 kts | 45° |
| 2026-05-08 08:34 | 59.34390 | 5.21557 | 89 ft | 2 kts | 346° |
| 2026-05-08 08:34 | 59.34383 | 5.21560 | 90 ft | 0 kts | 319° |
| 2026-05-08 08:36 | 59.34398 | 5.21531 | 89 ft | 5 kts | 312° |
| 2026-05-08 08:36 | 59.34411 | 5.21445 | 87 ft | 8 kts | 262° |
| 2026-05-08 08:37 | 59.34374 | 5.21355 | 88 ft | 9 kts | 221° |
| 2026-05-08 08:37 | 59.34348 | 5.21222 | 89 ft | 14 kts | 290° |
| 2026-05-08 08:37 | 59.34423 | 5.21054 | 83 ft | 19 kts | 314° |
| 2026-05-08 08:37 | 59.34526 | 5.20848 | 80 ft | 24 kts | 314° |
| 2026-05-08 08:38 | 59.34649 | 5.20600 | 82 ft | 27 kts | 314° |
| 2026-05-08 08:38 | 59.34788 | 5.20318 | 74 ft | 31 kts | 314° |
| 2026-05-08 08:38 | 59.34942 | 5.20003 | 73 ft | 31 kts | 315° |
| 2026-05-08 08:38 | 59.35038 | 5.19858 | 69 ft | 14 kts | 337° |
| 2026-05-08 08:39 | 59.35038 | 5.19813 | 64 ft | 5 kts | 136° |
| 2026-05-08 08:39 | 59.35036 | 5.19816 | 65 ft | 0 kts | 135° |
| 2026-05-08 08:39 | 59.35019 | 5.19850 | 71 ft | 23 kts | 134° |
| 2026-05-08 08:39 | 59.34722 | 5.20442 | 80 ft | 95 kts | 134° |
| 2026-05-08 08:40 | 59.34125 | 5.21632 | 116 ft | 144 kts | 135° |
| 2026-05-08 08:40 | 59.33416 | 5.23000 | 762 ft | 142 kts | 137° |
| 2026-05-08 08:40 | 59.32709 | 5.24386 | 1397 ft | 144 kts | 137° |
| 2026-05-08 08:40 | 59.31994 | 5.25847 | 1832 ft | 155 kts | 137° |
| 2026-05-08 08:41 | 59.31237 | 5.27447 | 2245 ft | 165 kts | 134° |
| 2026-05-08 08:41 | 59.30583 | 5.29383 | 2738 ft | 178 kts | 118° |
| 2026-05-08 08:41 | 59.30266 | 5.31803 | 3227 ft | 192 kts | 97° |
| 2026-05-08 08:41 | 59.30448 | 5.34518 | 3657 ft | 215 kts | 76° |
| 2026-05-08 08:42 | 59.31137 | 5.37283 | 4121 ft | 237 kts | 62° |
| 2026-05-08 08:42 | 59.32057 | 5.40069 | 4746 ft | 251 kts | 62° |
| 2026-05-08 08:42 | 59.32911 | 5.43153 | 5365 ft | 263 kts | 70° |
| 2026-05-08 08:42 | 59.33504 | 5.46531 | 6099 ft | 270 kts | 78° |
| 2026-05-08 08:43 | 59.33988 | 5.50159 | 6814 ft | 279 kts | 77° |
| 2026-05-08 08:43 | 59.34525 | 5.53851 | 7612 ft | 284 kts | 75° |
| 2026-05-08 08:43 | 59.35147 | 5.57569 | 8407 ft | 290 kts | 73° |
| 2026-05-08 08:43 | 59.35816 | 5.61322 | 9210 ft | 294 kts | 72° |
| 2026-05-08 08:44 | 59.36512 | 5.65120 | 9987 ft | 299 kts | 72° |
| 2026-05-08 08:44 | 59.37227 | 5.68990 | 10677 ft | 304 kts | 72° |
| 2026-05-08 08:44 | 59.37966 | 5.73016 | 10998 ft | 325 kts | 72° |
| 2026-05-08 08:44 | 59.38755 | 5.77338 | 11179 ft | 348 kts | 72° |
| 2026-05-08 08:45 | 59.39596 | 5.81958 | 11300 ft | 370 kts | 72° |
| 2026-05-08 08:45 | 59.40485 | 5.86854 | 11446 ft | 391 kts | 72° |
| 2026-05-08 08:45 | 59.41411 | 5.91988 | 11678 ft | 405 kts | 72° |
| 2026-05-08 08:45 | 59.42358 | 5.97246 | 12239 ft | 411 kts | 72° |
| 2026-05-08 08:46 | 59.43390 | 6.02508 | 12829 ft | 416 kts | 66° |
| 2026-05-08 08:46 | 59.44878 | 6.07423 | 13466 ft | 422 kts | 54° |
| 2026-05-08 08:46 | 59.46773 | 6.11854 | 14067 ft | 426 kts | 49° |
| 2026-05-08 08:46 | 59.48737 | 6.16266 | 14569 ft | 431 kts | 49° |
| 2026-05-08 08:47 | 59.50717 | 6.20727 | 15105 ft | 435 kts | 49° |
| 2026-05-08 08:47 | 59.52711 | 6.25239 | 15620 ft | 438 kts | 50° |
| 2026-05-08 08:47 | 59.54716 | 6.29793 | 16124 ft | 442 kts | 50° |
| 2026-05-08 08:47 | 59.56737 | 6.34397 | 16621 ft | 445 kts | 50° |
| 2026-05-08 08:48 | 59.58767 | 6.39038 | 17108 ft | 449 kts | 50° |
| 2026-05-08 08:48 | 59.60810 | 6.43716 | 17599 ft | 452 kts | 50° |
| 2026-05-08 08:48 | 59.62869 | 6.48443 | 18058 ft | 455 kts | 50° |
| 2026-05-08 08:48 | 59.64938 | 6.53206 | 18517 ft | 458 kts | 51° |
| 2026-05-08 08:49 | 59.67003 | 6.58028 | 18914 ft | 461 kts | 53° |
| 2026-05-08 08:49 | 59.68800 | 6.63278 | 19323 ft | 461 kts | 62° |
| 2026-05-08 08:49 | 59.70245 | 6.68956 | 19721 ft | 463 kts | 66° |
| 2026-05-08 08:49 | 59.71646 | 6.74716 | 20139 ft | 465 kts | 66° |
| 2026-05-08 08:50 | 59.73061 | 6.80507 | 20480 ft | 469 kts | 66° |
| 2026-05-08 08:50 | 59.74489 | 6.86355 | 20845 ft | 472 kts | 66° |
| 2026-05-08 08:50 | 59.75919 | 6.92237 | 21175 ft | 475 kts | 66° |
| 2026-05-08 08:50 | 59.77357 | 6.98156 | 21489 ft | 477 kts | 66° |
| 2026-05-08 08:51 | 59.78799 | 7.04101 | 21799 ft | 479 kts | 66° |
| 2026-05-08 08:51 | 59.80245 | 7.10080 | 22101 ft | 482 kts | 66° |
| 2026-05-08 08:51 | 59.81695 | 7.16106 | 22418 ft | 484 kts | 66° |
| 2026-05-08 08:51 | 59.83144 | 7.22157 | 22723 ft | 486 kts | 66° |
| 2026-05-08 08:52 | 59.84590 | 7.28216 | 23161 ft | 484 kts | 66° |
| 2026-05-08 08:52 | 59.86027 | 7.34241 | 23713 ft | 481 kts | 66° |
| 2026-05-08 08:52 | 59.87454 | 7.40247 | 24155 ft | 480 kts | 66° |
| 2026-05-08 08:52 | 59.88861 | 7.46168 | 24556 ft | 479 kts | 66° |
| 2026-05-08 08:53 | 59.90280 | 7.52158 | 24933 ft | 478 kts | 67° |
| 2026-05-08 08:53 | 59.91694 | 7.58151 | 25347 ft | 477 kts | 67° |
| 2026-05-08 08:53 | 59.93102 | 7.64142 | 25768 ft | 477 kts | 67° |
| 2026-05-08 08:53 | 59.94507 | 7.70126 | 26199 ft | 476 kts | 67° |
| 2026-05-08 08:54 | 59.95907 | 7.76112 | 26639 ft | 476 kts | 67° |
| 2026-05-08 08:54 | 59.97304 | 7.82116 | 27019 ft | 477 kts | 67° |
| 2026-05-08 08:54 | 59.98699 | 7.88127 | 27442 ft | 477 kts | 67° |
| 2026-05-08 08:54 | 60.00092 | 7.94137 | 27882 ft | 477 kts | 68° |
| 2026-05-08 08:55 | 60.01485 | 8.00162 | 28208 ft | 478 kts | 67° |
| 2026-05-08 08:55 | 60.02877 | 8.06203 | 28623 ft | 478 kts | 68° |
| 2026-05-08 08:55 | 60.04267 | 8.12237 | 29062 ft | 478 kts | 68° |
| 2026-05-08 08:55 | 60.05658 | 8.18288 | 29227 ft | 480 kts | 68° |
| 2026-05-08 08:56 | 60.08472 | 8.30660 | 29233 ft | 494 kts | 68° |
| 2026-05-08 08:56 | 60.11346 | 8.43333 | 29234 ft | 503 kts | 68° |
| 2026-05-08 08:57 | 60.14241 | 8.56130 | 29209 ft | 504 kts | 68° |
| 2026-05-08 08:57 | 60.17121 | 8.68966 | 29209 ft | 504 kts | 68° |
| 2026-05-08 08:58 | 60.19985 | 8.81837 | 29225 ft | 505 kts | 68° |
| 2026-05-08 08:58 | 60.21405 | 8.88244 | 29190 ft | 494 kts | 68° |
| 2026-05-08 08:58 | 60.22777 | 8.94438 | 29195 ft | 478 kts | 68° |
| 2026-05-08 08:59 | 60.24132 | 9.00501 | 28942 ft | 472 kts | 67° |
| 2026-05-08 08:59 | 60.25472 | 9.06464 | 28412 ft | 466 kts | 67° |
| 2026-05-08 08:59 | 60.26780 | 9.12424 | 27892 ft | 464 kts | 71° |
| 2026-05-08 08:59 | 60.27850 | 9.18456 | 27320 ft | 459 kts | 73° |
| 2026-05-08 09:00 | 60.28869 | 9.24520 | 26656 ft | 443 kts | 73° |
| 2026-05-08 09:00 | 60.29803 | 9.30258 | 26031 ft | 430 kts | 74° |
| 2026-05-08 09:00 | 60.30710 | 9.35933 | 25406 ft | 420 kts | 74° |
| 2026-05-08 09:00 | 60.31555 | 9.41507 | 24794 ft | 411 kts | 80° |
| 2026-05-08 09:01 | 60.31955 | 9.47152 | 24104 ft | 404 kts | 86° |
| 2026-05-08 09:01 | 60.32267 | 9.52758 | 23293 ft | 400 kts | 86° |
| 2026-05-08 09:01 | 60.32564 | 9.58292 | 22439 ft | 395 kts | 86° |
| 2026-05-08 09:01 | 60.32853 | 9.63770 | 21609 ft | 390 kts | 86° |
| 2026-05-08 09:02 | 60.33134 | 9.69173 | 20805 ft | 385 kts | 86° |
| 2026-05-08 09:02 | 60.33410 | 9.74512 | 20027 ft | 380 kts | 86° |
| 2026-05-08 09:02 | 60.33590 | 9.78009 | 19519 ft | 377 kts | 86° |
| 2026-05-08 09:02 | 60.33856 | 9.83231 | 18766 ft | 371 kts | 86° |
| 2026-05-08 09:03 | 60.34117 | 9.88380 | 17953 ft | 366 kts | 86° |
| 2026-05-08 09:03 | 60.34374 | 9.93458 | 17115 ft | 362 kts | 86° |
| 2026-05-08 09:03 | 60.34626 | 9.98483 | 16302 ft | 358 kts | 87° |
| 2026-05-08 09:03 | 60.34870 | 10.03452 | 15520 ft | 354 kts | 87° |
| 2026-05-08 09:04 | 60.35110 | 10.08371 | 14736 ft | 350 kts | 87° |
| 2026-05-08 09:04 | 60.35347 | 10.13220 | 14068 ft | 343 kts | 87° |
| 2026-05-08 09:04 | 60.35581 | 10.17961 | 13445 ft | 335 kts | 87° |
| 2026-05-08 09:04 | 60.35807 | 10.22585 | 12828 ft | 327 kts | 87° |
| 2026-05-08 09:05 | 60.36022 | 10.27114 | 12233 ft | 321 kts | 88° |
| 2026-05-08 09:05 | 60.36233 | 10.31553 | 11681 ft | 314 kts | 88° |
| 2026-05-08 09:05 | 60.36437 | 10.35883 | 11171 ft | 306 kts | 88° |
| 2026-05-08 09:05 | 60.36637 | 10.40117 | 10670 ft | 300 kts | 88° |
| 2026-05-08 09:06 | 60.36830 | 10.44291 | 10175 ft | 297 kts | 88° |
| 2026-05-08 09:06 | 60.37019 | 10.48420 | 9642 ft | 294 kts | 88° |
| 2026-05-08 09:06 | 60.37205 | 10.52550 | 9094 ft | 296 kts | 89° |
| 2026-05-08 09:06 | 60.37390 | 10.56650 | 8585 ft | 291 kts | 89° |
| 2026-05-08 09:07 | 60.37575 | 10.60691 | 8059 ft | 288 kts | 89° |
| 2026-05-08 09:07 | 60.37755 | 10.64697 | 7546 ft | 284 kts | 89° |
| 2026-05-08 09:07 | 60.37930 | 10.68665 | 7044 ft | 283 kts | 89° |
| 2026-05-08 09:07 | 60.38103 | 10.72609 | 6543 ft | 281 kts | 89° |
| 2026-05-08 09:08 | 60.38274 | 10.76525 | 6015 ft | 279 kts | 89° |
| 2026-05-08 09:08 | 60.38445 | 10.80418 | 5492 ft | 277 kts | 89° |
| 2026-05-08 09:08 | 60.38613 | 10.84268 | 5057 ft | 270 kts | 88° |
| 2026-05-08 09:08 | 60.38677 | 10.87909 | 4997 ft | 249 kts | 99° |
| 2026-05-08 09:09 | 60.38505 | 10.91384 | 5009 ft | 247 kts | 99° |
| 2026-05-08 09:09 | 60.38278 | 10.94806 | 4922 ft | 246 kts | 107° |
| 2026-05-08 09:09 | 60.37747 | 10.98018 | 4550 ft | 235 kts | 120° |
| 2026-05-08 09:09 | 60.36954 | 11.00793 | 4245 ft | 221 kts | 131° |
| 2026-05-08 09:10 | 60.35979 | 11.03071 | 3942 ft | 209 kts | 141° |
| 2026-05-08 09:10 | 60.34902 | 11.04932 | 3664 ft | 199 kts | 144° |
| 2026-05-08 09:10 | 60.33872 | 11.06661 | 3403 ft | 188 kts | 144° |
| 2026-05-08 09:10 | 60.32892 | 11.08307 | 3117 ft | 179 kts | 144° |
| 2026-05-08 09:11 | 60.31968 | 11.09863 | 2861 ft | 166 kts | 144° |
| 2026-05-08 09:11 | 60.31113 | 11.11179 | 2660 ft | 145 kts | 151° |
| 2026-05-08 09:11 | 60.30247 | 11.12045 | 2466 ft | 134 kts | 162° |
| 2026-05-08 09:11 | 60.29362 | 11.12541 | 2273 ft | 130 kts | 172° |
| 2026-05-08 09:12 | 60.28473 | 11.12711 | 2095 ft | 127 kts | 180° |
| 2026-05-08 09:12 | 60.27591 | 11.12570 | 1905 ft | 130 kts | 190° |
| 2026-05-08 09:12 | 60.26704 | 11.12126 | 1718 ft | 130 kts | 194° |
| 2026-05-08 09:12 | 60.25849 | 11.11626 | 1563 ft | 126 kts | 196° |
| 2026-05-08 09:13 | 60.24990 | 11.11114 | 1410 ft | 131 kts | 194° |
| 2026-05-08 09:13 | 60.24121 | 11.10596 | 1253 ft | 132 kts | 193° |
| 2026-05-08 09:13 | 60.23232 | 11.10097 | 1081 ft | 134 kts | 193° |
| 2026-05-08 09:13 | 60.22327 | 11.09583 | 885 ft | 136 kts | 194° |
| 2026-05-08 09:14 | 60.21425 | 11.09062 | 713 ft | 132 kts | 195° |
| 2026-05-08 09:14 | 60.20638 | 11.08609 | 684 ft | 99 kts | 196° |
| 2026-05-08 09:14 | 60.20186 | 11.08347 | 683 ft | 38 kts | 195° |
| 2026-05-08 09:14 | 60.19993 | 11.08291 | 683 ft | 21 kts | 174° |
| 2026-05-08 09:15 | 60.19890 | 11.08451 | 679 ft | 19 kts | 109° |
| 2026-05-08 09:15 | 60.19849 | 11.08732 | 680 ft | 21 kts | 107° |
| 2026-05-08 09:15 | 60.19808 | 11.09005 | 686 ft | 20 kts | 107° |
| 2026-05-08 09:15 | 60.19768 | 11.09283 | 691 ft | 22 kts | 106° |
| 2026-05-08 09:16 | 60.19724 | 11.09580 | 691 ft | 18 kts | 107° |
| 2026-05-08 09:16 | 60.19653 | 11.09726 | 690 ft | 16 kts | 173° |
| 2026-05-08 09:16 | 60.19556 | 11.09752 | 691 ft | 10 kts | 194° |
| 2026-05-08 09:16 | 60.19519 | 11.09730 | 687 ft | 0 kts | 196° |